createdAt,value
2022-09-07T00:00:57.723Z,1.73
2022-09-07T00:03:24.632Z,1.58
2022-09-07T00:05:51.795Z,1.88
2022-09-07T00:08:20.198Z,1.67
2022-09-07T00:10:57.050Z,1.75
2022-09-07T00:13:25.070Z,1.35
2022-09-07T00:15:51.944Z,1.50
2022-09-07T00:18:18.753Z,1.60
2022-09-07T00:20:45.470Z,1.73
2022-09-07T00:23:12.261Z,1.70
2022-09-07T00:25:39.628Z,1.63
2022-09-07T00:28:07.157Z,1.55
2022-09-07T00:30:34.425Z,1.58
2022-09-07T00:33:01.077Z,1.42
2022-09-07T00:35:27.714Z,1.73
2022-09-07T00:37:54.434Z,1.45
2022-09-07T00:40:21.071Z,1.40
2022-09-07T00:42:47.706Z,1.60
2022-09-07T00:45:21.322Z,1.80
2022-09-07T00:47:57.112Z,1.60
2022-09-07T00:50:45.885Z,1.92
2022-09-07T00:53:15.842Z,1.73
2022-09-07T00:59:32.591Z,1.70
2022-09-07T01:01:59.396Z,1.70
2022-09-07T01:04:26.161Z,1.70
2022-09-07T01:06:53.824Z,1.65
2022-09-07T01:09:22.188Z,1.75
2022-09-07T01:11:51.030Z,1.90
2022-09-07T01:14:20.156Z,2.00
2022-09-07T01:17:08.417Z,1.90
2022-09-07T01:19:50.384Z,2.58
2022-09-07T01:22:29.313Z,3.60
2022-09-07T01:25:09.812Z,1.98
2022-09-07T01:30:16.603Z,1.75
2022-09-07T01:33:02.104Z,1.98
2022-09-07T01:35:34.978Z,1.95
2022-09-07T01:38:15.064Z,2.08
2022-09-07T01:40:47.906Z,1.83
2022-09-07T01:43:19.009Z,1.67
2022-09-07T01:45:45.628Z,1.52
2022-09-07T01:48:14.792Z,1.80
2022-09-07T01:51:02.302Z,1.75
2022-09-07T01:53:33.359Z,1.60
2022-09-07T01:56:11.454Z,1.42
2022-09-07T01:58:45.053Z,1.80
2022-09-07T02:01:25.167Z,2.00
2022-09-07T02:04:00.512Z,1.80
2022-09-07T02:06:45.254Z,1.98
2022-09-07T02:09:33.173Z,2.08
2022-09-07T02:12:02.913Z,2.20
2022-09-07T02:14:31.969Z,2.20
2022-09-07T02:17:05.273Z,2.00
2022-09-07T02:19:42.649Z,2.33
2022-09-07T02:22:11.675Z,1.90
2022-09-07T02:24:40.958Z,1.92
2022-09-07T02:27:12.387Z,2.00
2022-09-07T02:29:39.239Z,2.00
2022-09-07T02:32:06.045Z,1.88
2022-09-07T02:34:32.741Z,2.10
2022-09-07T02:36:59.783Z,2.22
2022-09-07T02:39:26.437Z,2.10
2022-09-07T02:41:53.090Z,2.50
2022-09-07T02:44:21.552Z,2.03
2022-09-07T02:47:20.870Z,2.42
2022-09-07T02:50:13.053Z,2.45
2022-09-07T02:52:44.681Z,2.28
2022-09-07T02:55:33.153Z,2.67
2022-09-07T02:58:13.642Z,2.20
2022-09-07T03:03:57.346Z,2.27
2022-09-07T03:06:25.282Z,2.50
2022-09-07T03:08:54.100Z,2.25
2022-09-07T03:11:20.754Z,2.28
2022-09-07T03:13:47.387Z,2.42
2022-09-07T03:16:14.683Z,2.35
2022-09-07T03:18:43.445Z,2.22
2022-09-07T03:21:19.803Z,2.05
2022-09-07T03:23:51.172Z,2.55
2022-09-07T03:26:25.099Z,2.22
2022-09-07T03:28:52.034Z,2.55
2022-09-07T03:31:18.893Z,2.22
2022-09-07T03:33:45.531Z,2.50
2022-09-07T03:36:12.178Z,2.40
2022-09-07T03:38:38.802Z,2.85
2022-09-07T03:41:06.261Z,2.70
2022-09-07T03:43:33.088Z,2.70
2022-09-07T03:46:00.760Z,2.30
2022-09-07T03:48:29.894Z,2.60
2022-09-07T03:51:07.696Z,2.63
2022-09-07T03:53:35.929Z,3.03
2022-09-07T03:56:07.070Z,2.78
2022-09-07T03:58:34.097Z,2.85
2022-09-07T04:01:01.181Z,2.92
2022-09-07T04:03:27.828Z,2.67
2022-09-07T04:05:54.452Z,2.92
2022-09-07T04:08:24.303Z,3.08
2022-09-07T04:10:50.916Z,2.95
2022-09-07T04:13:17.547Z,2.90
2022-09-07T04:15:44.190Z,3.20
2022-09-07T04:18:10.800Z,3.08
2022-09-07T04:20:37.508Z,3.13
2022-09-07T04:23:04.149Z,3.40
2022-09-07T04:25:30.781Z,3.10
2022-09-07T04:27:57.512Z,2.63
2022-09-07T04:30:24.189Z,7.32
2022-09-07T04:32:50.814Z,5.60
2022-09-07T04:35:17.453Z,3.10
2022-09-07T04:37:44.602Z,2.72
2022-09-07T04:40:11.621Z,3.08
2022-09-07T04:42:38.359Z,2.60
2022-09-07T04:45:05.566Z,2.70
2022-09-07T04:47:32.173Z,2.40
2022-09-07T04:49:58.846Z,2.75
2022-09-07T04:52:25.542Z,2.30
2022-09-07T04:54:52.185Z,2.80
2022-09-07T04:57:21.663Z,2.63
2022-09-07T04:59:48.760Z,2.80
2022-09-07T05:02:15.423Z,2.92
2022-09-07T05:04:42.148Z,3.45
2022-09-07T05:07:08.786Z,3.00
2022-09-07T05:09:35.411Z,2.88
2022-09-07T05:12:02.401Z,3.17
2022-09-07T05:14:29.017Z,3.50
2022-09-07T05:16:55.675Z,3.50
2022-09-07T05:19:22.929Z,3.80
2022-09-07T05:21:49.714Z,4.40
2022-09-07T05:24:16.633Z,3.50
2022-09-07T05:26:43.355Z,3.42
2022-09-07T05:31:56.995Z,3.40
2022-09-07T05:34:31.561Z,3.42
2022-09-07T05:36:58.845Z,3.30
2022-09-07T05:39:25.717Z,3.60
2022-09-07T05:41:52.436Z,2.90
2022-09-07T05:47:06.416Z,3.05
2022-09-07T05:49:33.116Z,2.80
2022-09-07T05:51:59.729Z,3.00
2022-09-07T05:54:26.566Z,3.10
2022-09-07T05:56:53.211Z,3.30
2022-09-07T05:59:19.861Z,3.03
2022-09-07T06:01:46.707Z,2.95
2022-09-07T06:04:13.366Z,3.60
2022-09-07T06:06:40.083Z,3.35
2022-09-07T06:09:06.866Z,3.33
2022-09-07T06:11:33.528Z,2.88
2022-09-07T06:14:00.157Z,3.42
2022-09-07T06:16:26.916Z,3.17
2022-09-07T06:18:53.794Z,3.30
2022-09-07T06:21:21.878Z,2.80
2022-09-07T06:23:49.034Z,2.70
2022-09-07T06:26:16.589Z,3.05
2022-09-07T06:28:49.710Z,2.83
2022-09-07T06:31:22.808Z,2.67
2022-09-07T06:33:50.023Z,2.63
2022-09-07T06:36:18.093Z,2.58
2022-09-07T06:38:45.212Z,1.95
2022-09-07T06:44:03.517Z,2.20
2022-09-07T06:49:17.321Z,2.17
2022-09-07T06:51:44.119Z,2.08
2022-09-07T06:56:58.715Z,1.63
2022-09-07T06:59:25.326Z,1.40
2022-09-07T07:01:51.981Z,1.35
2022-09-07T07:04:18.609Z,1.48
2022-09-07T07:06:45.284Z,1.30
2022-09-07T07:09:13.277Z,1.50
2022-09-07T07:11:39.970Z,1.23
2022-09-07T07:14:07.083Z,1.42
2022-09-07T07:16:34.216Z,1.48
2022-09-07T07:19:01.337Z,1.27
2022-09-07T07:21:38.275Z,1.00
2022-09-07T07:24:15.471Z,1.40
2022-09-07T07:26:43.876Z,1.48
2022-09-07T07:29:12.086Z,1.52
2022-09-07T07:31:39.953Z,1.80
2022-09-07T07:34:07.356Z,1.33
2022-09-07T07:36:35.505Z,1.55
2022-09-07T07:39:03.557Z,1.40
2022-09-07T07:44:18.143Z,1.30
2022-09-07T07:46:47.990Z,1.55
2022-09-07T07:49:14.663Z,1.58
2022-09-07T07:54:27.801Z,1.70
2022-09-07T07:56:54.377Z,1.50
2022-09-07T07:59:21.080Z,1.83
2022-09-07T08:01:47.815Z,1.60
2022-09-07T08:04:14.924Z,1.70
2022-09-07T08:06:45.036Z,1.80
2022-09-07T08:09:12.082Z,2.03
2022-09-07T08:11:40.406Z,2.40
2022-09-07T08:14:09.717Z,2.28
2022-09-07T08:16:37.567Z,1.80
2022-09-07T08:19:05.717Z,1.98
2022-09-07T08:21:32.324Z,1.90
2022-09-07T08:24:00.009Z,1.63
2022-09-07T08:26:27.227Z,2.22
2022-09-07T08:28:53.949Z,1.80
2022-09-07T08:31:20.598Z,1.80
2022-09-07T08:33:47.190Z,1.52
2022-09-07T08:36:14.879Z,1.90
2022-09-07T08:38:42.007Z,1.67
2022-09-07T08:41:27.795Z,1.50
2022-09-07T08:44:06.344Z,1.60
2022-09-07T08:46:35.258Z,1.88
2022-09-07T08:49:03.077Z,1.70
2022-09-07T08:51:36.202Z,1.50
2022-09-07T08:54:03.208Z,1.48
2022-09-07T08:56:37.441Z,1.50
2022-09-07T08:59:07.579Z,1.40
2022-09-07T09:01:37.662Z,1.95
2022-09-07T09:04:22.282Z,1.58
2022-09-07T09:06:53.039Z,2.13
2022-09-07T09:09:29.386Z,1.60
2022-09-07T09:12:21.082Z,2.13
2022-09-07T09:15:49.975Z,1.60
2022-09-07T09:18:34.492Z,1.50
2022-09-07T09:21:01.130Z,1.42
2022-09-07T09:23:31.394Z,1.42
2022-09-07T09:26:18.076Z,2.20
2022-09-07T09:28:44.688Z,1.50
2022-09-07T09:31:18.927Z,1.95
2022-09-07T09:34:06.219Z,1.63
2022-09-07T09:36:34.755Z,1.70
2022-09-07T09:39:01.466Z,1.33
2022-09-07T09:41:36.048Z,1.30
2022-09-07T09:44:03.358Z,1.17
2022-09-07T09:46:31.829Z,1.50
2022-09-07T09:49:17.967Z,1.50
2022-09-07T09:54:39.967Z,1.10
2022-09-07T09:57:06.985Z,1.58
2022-09-07T10:05:24.618Z,1.70
2022-09-07T10:07:51.949Z,1.50
2022-09-07T10:10:19.049Z,1.20
2022-09-07T10:12:46.248Z,1.50
2022-09-07T10:15:25.155Z,1.05
2022-09-07T10:17:52.129Z,1.27
2022-09-07T10:20:20.369Z,1.60
2022-09-07T10:22:57.701Z,1.40
2022-09-07T10:25:40.643Z,1.42
2022-09-07T10:28:13.991Z,1.30
2022-09-07T10:30:51.266Z,1.55
2022-09-07T10:33:30.202Z,1.40
2022-09-07T10:36:00.286Z,1.40
2022-09-07T10:38:27.302Z,1.55
2022-09-07T10:40:58.505Z,1.48
2022-09-07T10:43:45.020Z,1.60
2022-09-07T10:46:12.427Z,1.60
2022-09-07T10:48:58.201Z,1.35
2022-09-07T10:51:41.669Z,1.42
2022-09-07T10:54:31.130Z,1.33
2022-09-07T10:57:13.419Z,1.50
2022-09-07T11:05:46.847Z,1.73
2022-09-07T11:08:16.992Z,1.63
2022-09-07T11:10:50.505Z,1.73
2022-09-07T11:13:18.784Z,1.42
2022-09-07T11:16:06.674Z,1.30
2022-09-07T11:18:36.180Z,1.45
2022-09-07T11:21:03.565Z,1.50
2022-09-07T11:23:32.709Z,1.45
2022-09-07T11:25:59.719Z,1.30
2022-09-07T11:28:44.654Z,1.40
2022-09-07T11:31:38.265Z,0.93
2022-09-07T11:34:25.669Z,1.15
2022-09-07T11:36:57.092Z,1.20
2022-09-07T11:39:26.443Z,1.10
2022-09-07T11:44:56.058Z,1.23
2022-09-07T11:47:26.062Z,1.02
2022-09-07T11:49:59.115Z,1.20
2022-09-07T11:52:31.106Z,1.10
2022-09-07T11:55:02.958Z,0.93
2022-09-07T11:57:51.430Z,1.10
2022-09-07T12:00:22.370Z,1.10
2022-09-07T12:03:08.400Z,0.90
2022-09-07T12:05:44.578Z,0.70
2022-09-07T12:08:30.223Z,0.70
2022-09-07T12:11:00.319Z,0.70
2022-09-07T12:13:46.456Z,1.00
2022-09-07T12:16:32.305Z,0.90
2022-09-07T12:19:07.357Z,0.90
2022-09-07T12:21:34.595Z,0.70
2022-09-07T12:24:01.586Z,0.77
2022-09-07T12:26:35.391Z,0.90
2022-09-07T12:29:02.346Z,0.82
2022-09-07T12:31:58.598Z,0.80
2022-09-07T12:34:33.403Z,0.98
2022-09-07T12:37:03.036Z,0.88
2022-09-07T12:39:34.332Z,0.70
2022-09-07T12:45:15.933Z,0.90
2022-09-07T12:47:42.932Z,0.70
2022-09-07T12:50:21.581Z,0.73
2022-09-07T12:53:08.911Z,0.90
2022-09-07T12:58:36.761Z,0.85
2022-09-07T13:01:12.967Z,0.90
2022-09-07T13:03:55.341Z,0.90
2022-09-07T13:07:04.566Z,0.80
2022-09-07T13:09:38.220Z,0.75
2022-09-07T13:15:31.973Z,0.80
2022-09-07T13:17:58.617Z,1.10
2022-09-07T13:20:30.145Z,0.80
2022-09-07T13:23:18.086Z,1.08
2022-09-07T13:25:47.059Z,0.98
2022-09-07T13:28:25.341Z,1.10
2022-09-07T13:31:22.967Z,0.90
2022-09-07T13:33:50.893Z,0.90
2022-09-07T13:36:50.086Z,1.00
2022-09-07T13:39:18.193Z,0.80
2022-09-07T13:41:52.325Z,0.90
2022-09-07T13:44:26.233Z,0.80
2022-09-07T13:46:59.543Z,0.70
2022-09-07T13:49:37.394Z,0.93
2022-09-07T13:52:19.235Z,0.60
2022-09-07T13:54:58.610Z,0.70
2022-09-07T13:57:43.751Z,0.70
2022-09-07T14:00:14.846Z,0.57
2022-09-07T14:02:41.530Z,0.60
2022-09-07T14:05:09.760Z,1.00
2022-09-07T14:07:36.403Z,1.10
2022-09-07T14:10:20.528Z,1.05
2022-09-07T14:13:03.562Z,1.27
2022-09-07T14:15:44.223Z,1.10
2022-09-07T14:18:15.144Z,1.13
2022-09-07T14:20:59.889Z,1.00
2022-09-07T14:23:30.071Z,1.30
2022-09-07T14:26:19.972Z,1.17
2022-09-07T14:28:48.013Z,1.20
2022-09-07T14:31:16.271Z,1.10
2022-09-07T14:33:51.216Z,0.98
2022-09-07T14:36:41.738Z,1.17
2022-09-07T14:39:05.885Z,1.13
2022-09-07T14:41:34.546Z,1.10
2022-09-07T14:44:01.282Z,1.00
2022-09-07T14:46:33.986Z,1.17
2022-09-07T14:49:21.529Z,1.00
2022-09-07T14:51:48.415Z,1.17
2022-09-07T14:54:29.201Z,1.00
2022-09-07T14:57:02.636Z,1.00
2022-09-07T14:59:37.429Z,1.00
2022-09-07T15:02:23.785Z,0.88
2022-09-07T15:05:10.465Z,0.80
2022-09-07T15:07:40.813Z,1.25
2022-09-07T15:10:27.125Z,1.10
2022-09-07T15:13:01.353Z,1.00
2022-09-07T15:15:33.458Z,1.00
2022-09-07T15:18:08.208Z,1.17
2022-09-07T15:20:43.940Z,1.10
2022-09-07T15:23:17.495Z,1.33
2022-09-07T15:25:50.947Z,1.13
2022-09-07T15:34:10.236Z,1.00
2022-09-07T15:36:37.641Z,0.90
2022-09-07T15:39:04.358Z,1.10
2022-09-07T15:41:31.044Z,1.25
2022-09-07T15:43:57.901Z,1.50
2022-09-07T15:46:25.317Z,1.27
2022-09-07T15:48:55.440Z,0.88
2022-09-07T15:54:13.677Z,0.70
2022-09-07T15:56:42.302Z,0.80
2022-09-07T15:59:09.218Z,0.95
2022-09-07T16:01:51.564Z,0.90
2022-09-07T16:04:18.535Z,0.95
2022-09-07T16:06:48.132Z,0.88
2022-09-07T16:09:16.124Z,0.90
2022-09-07T16:11:42.725Z,0.88
2022-09-07T16:14:12.246Z,0.80
2022-09-07T16:19:25.404Z,1.52
2022-09-07T16:21:51.983Z,1.33
2022-09-07T16:24:18.722Z,0.90
2022-09-07T16:26:45.491Z,1.00
2022-09-07T16:29:12.046Z,0.90
2022-09-07T16:32:43.546Z,1.00
2022-09-07T16:34:25.689Z,0.88
2022-09-07T16:36:52.353Z,0.90
2022-09-07T16:39:19.534Z,1.20
2022-09-07T16:41:46.150Z,0.90
2022-09-07T16:44:12.792Z,0.90
2022-09-07T16:46:40.517Z,0.95
2022-09-07T16:49:07.491Z,0.95
2022-09-07T16:51:34.475Z,0.80
2022-09-07T16:54:01.069Z,0.90
2022-09-07T16:56:29.162Z,0.82
2022-09-07T16:59:00.929Z,0.80
2022-09-07T17:01:29.241Z,0.88
2022-09-07T17:03:56.143Z,1.00
2022-09-07T17:06:24.673Z,2.60
2022-09-07T17:08:51.650Z,0.95
2022-09-07T17:11:22.872Z,0.98
2022-09-07T17:13:49.605Z,0.90
2022-09-07T17:16:37.768Z,0.80
2022-09-07T17:21:53.498Z,1.05
2022-09-07T17:24:20.091Z,3.63
2022-09-07T17:26:46.762Z,1.65
2022-09-07T17:29:13.537Z,0.75
2022-09-07T17:34:27.352Z,1.20
2022-09-07T17:36:53.932Z,3.78
2022-09-07T17:39:20.537Z,2.95
2022-09-07T17:41:48.053Z,1.45
2022-09-07T17:44:14.756Z,1.02
2022-09-07T17:46:41.345Z,1.13
2022-09-07T17:49:10.058Z,1.35
2022-09-07T17:51:36.705Z,1.15
2022-09-07T17:54:09.623Z,1.13
2022-09-07T18:02:13.605Z,1.38
2022-09-07T18:04:40.286Z,0.88
2022-09-07T18:07:06.925Z,1.35
2022-09-07T18:09:33.549Z,1.95
2022-09-07T18:12:00.494Z,1.70
2022-09-07T18:14:28.198Z,3.65
2022-09-07T18:16:55.098Z,7.70
2022-09-07T18:19:21.739Z,2.60
2022-09-07T18:21:48.969Z,3.25
2022-09-07T18:24:20.314Z,2.65
2022-09-07T18:26:51.839Z,1.85
2022-09-07T18:29:29.400Z,2.00
2022-09-07T18:31:57.933Z,2.20
2022-09-07T18:34:24.612Z,2.08
2022-09-07T18:36:51.262Z,2.40
2022-09-07T18:39:18.130Z,2.20
2022-09-07T18:41:44.694Z,2.20
2022-09-07T18:46:57.854Z,2.10
2022-09-07T18:49:24.990Z,2.10
2022-09-07T18:54:38.735Z,21.02
2022-09-07T18:57:06.658Z,20.15
2022-09-07T18:59:34.045Z,9.43
2022-09-07T19:02:04.220Z,3.38
2022-09-07T19:07:20.374Z,1.20
2022-09-07T19:09:48.020Z,1.35
2022-09-07T19:12:14.734Z,1.30
2022-09-07T19:14:42.111Z,1.40
2022-09-07T19:17:10.788Z,1.10
2022-09-07T19:19:38.246Z,1.20
2022-09-07T19:22:04.871Z,1.20
2022-09-07T19:24:31.871Z,1.38
2022-09-07T19:27:00.717Z,1.67
2022-09-07T19:29:27.901Z,1.95
2022-09-07T19:32:11.735Z,1.25
2022-09-07T19:34:40.114Z,1.20
2022-09-07T19:37:07.239Z,1.33
2022-09-07T19:39:33.961Z,1.17
2022-09-07T19:42:00.704Z,1.15
2022-09-07T19:44:27.866Z,1.15
2022-09-07T19:46:54.550Z,1.33
2022-09-07T19:49:21.229Z,1.17
2022-09-07T19:51:51.804Z,1.20
2022-09-07T19:54:19.270Z,1.20
2022-09-07T19:56:46.001Z,1.15
2022-09-07T19:59:12.759Z,1.45
2022-09-07T20:01:40.552Z,1.50
2022-09-07T20:04:10.218Z,1.73
2022-09-07T20:06:37.925Z,1.50
2022-09-07T20:09:04.803Z,2.05
2022-09-07T20:11:31.784Z,1.70
2022-09-07T20:13:58.356Z,1.90
2022-09-07T20:16:25.399Z,2.25
2022-09-07T20:18:52.143Z,2.15
2022-09-07T20:21:22.460Z,2.05
2022-09-07T20:26:16.913Z,1.88
2022-09-07T20:28:43.894Z,2.13
2022-09-07T20:31:12.211Z,2.25
2022-09-07T20:33:38.857Z,1.90
2022-09-07T20:36:10.334Z,2.20
2022-09-07T20:38:44.575Z,2.20
2022-09-07T20:41:24.994Z,2.13
2022-09-07T20:46:18.419Z,1.90
2022-09-07T20:48:45.060Z,1.50
2022-09-07T20:51:13.437Z,1.48
2022-09-07T20:53:40.128Z,1.70
2022-09-07T20:56:17.551Z,1.75
2022-09-07T20:58:44.974Z,1.70
2022-09-07T21:01:12.978Z,2.05
2022-09-07T21:03:39.826Z,1.55
2022-09-07T21:06:07.558Z,1.70
2022-09-07T21:08:38.189Z,1.50
2022-09-07T21:11:09.366Z,1.60
2022-09-07T21:13:36.617Z,1.85
2022-09-07T21:16:10.236Z,1.98
2022-09-07T21:18:36.909Z,2.35
2022-09-07T21:21:19.241Z,2.22
2022-09-07T21:23:46.777Z,1.80
2022-09-07T21:26:13.443Z,2.03
2022-09-07T21:28:40.069Z,2.08
2022-09-07T21:31:07.265Z,2.20
2022-09-07T21:33:35.128Z,1.95
2022-09-07T21:36:05.681Z,1.70
2022-09-07T21:40:58.822Z,2.33
2022-09-07T21:43:25.458Z,1.85
2022-09-07T21:45:52.115Z,1.45
2022-09-07T21:48:18.702Z,1.90
2022-09-07T21:50:46.749Z,2.00
2022-09-07T21:53:13.484Z,1.90
2022-09-07T21:55:40.033Z,2.10
2022-09-07T21:58:06.648Z,2.00
2022-09-07T22:00:33.284Z,1.92
2022-09-07T22:02:59.909Z,1.88
2022-09-07T22:05:26.463Z,1.83
2022-09-07T22:07:53.167Z,1.63
2022-09-07T22:10:19.738Z,1.60
2022-09-07T22:12:46.302Z,2.05
2022-09-07T22:15:12.875Z,1.88
2022-09-07T22:17:42.322Z,1.80
2022-09-07T22:20:12.278Z,1.73
2022-09-07T22:22:38.886Z,2.00
2022-09-07T22:25:05.920Z,2.05
2022-09-07T22:27:32.856Z,1.88
2022-09-07T22:29:59.427Z,1.77
2022-09-07T22:32:25.973Z,1.77
2022-09-07T22:34:52.603Z,1.80
2022-09-07T22:37:19.210Z,2.10
2022-09-07T22:39:45.838Z,1.80
2022-09-07T22:42:12.443Z,1.70
2022-09-07T22:44:39.004Z,1.92
2022-09-07T22:47:05.651Z,1.92
2022-09-07T22:49:32.210Z,2.25
2022-09-07T22:51:58.820Z,1.90
2022-09-07T22:54:25.377Z,2.30
2022-09-07T22:56:51.974Z,2.20
2022-09-07T22:59:18.519Z,2.40
2022-09-07T23:01:45.738Z,2.10
2022-09-07T23:04:13.178Z,2.42
2022-09-07T23:06:41.359Z,2.63
2022-09-07T23:09:12.681Z,2.30
2022-09-07T23:11:39.668Z,2.05
2022-09-07T23:14:08.067Z,2.42
2022-09-07T23:16:34.703Z,2.15
2022-09-07T23:19:01.472Z,2.58
2022-09-07T23:21:28.203Z,2.20
2022-09-07T23:23:58.888Z,2.40
2022-09-07T23:26:28.711Z,2.30
2022-09-07T23:28:56.742Z,2.53
2022-09-07T23:31:23.884Z,2.30
2022-09-07T23:33:50.542Z,2.55
2022-09-07T23:36:17.413Z,2.70
2022-09-07T23:38:45.166Z,2.45
2022-09-07T23:41:13.817Z,2.33
2022-09-07T23:43:40.572Z,2.22
2022-09-07T23:46:07.297Z,2.30
2022-09-07T23:48:33.880Z,2.28
2022-09-07T23:51:00.430Z,2.45
2022-09-07T23:53:27.109Z,2.67
2022-09-07T23:55:53.754Z,2.90
2022-09-07T23:58:21.138Z,2.88
